sensor_id;sensor_type;location;lat;lon;timestamp;temperature;humidity
66608;DHT22;53462;39.616;8.824;2023-11-21T00:01:42;14.90;99.90
66608;DHT22;53462;39.616;8.824;2023-11-21T00:04:09;15.00;99.90
66608;DHT22;53462;39.616;8.824;2023-11-21T00:06:34;15.10;99.90
66608;DHT22;53462;39.616;8.824;2023-11-21T00:09:00;15.20;99.90
66608;DHT22;53462;39.616;8.824;2023-11-21T00:11:26;15.20;99.90
66608;DHT22;53462;39.616;8.824;2023-11-21T00:13:52;15.20;99.90
66608;DHT22;53462;39.616;8.824;2023-11-21T00:16:18;15.20;99.90
66608;DHT22;53462;39.616;8.824;2023-11-21T00:18:44;15.30;99.90
66608;DHT22;53462;39.616;8.824;2023-11-21T00:21:12;15.30;99.90
66608;DHT22;53462;39.616;8.824;2023-11-21T00:23:38;15.30;99.90
66608;DHT22;53462;39.616;8.824;2023-11-21T00:26:04;15.40;99.90
66608;DHT22;53462;39.616;8.824;2023-11-21T00:28:30;15.30;99.90
66608;DHT22;53462;39.616;8.824;2023-11-21T00:30:56;15.20;99.90
66608;DHT22;53462;39.616;8.824;2023-11-21T00:33:22;15.30;99.90
66608;DHT22;53462;39.616;8.824;2023-11-21T00:35:47;15.30;99.90
66608;DHT22;53462;39.616;8.824;2023-11-21T00:38:13;15.30;99.90
66608;DHT22;53462;39.616;8.824;2023-11-21T00:40:39;15.30;99.90
66608;DHT22;53462;39.616;8.824;2023-11-21T00:43:05;15.40;99.90
66608;DHT22;53462;39.616;8.824;2023-11-21T00:45:31;15.30;99.90
66608;DHT22;53462;39.616;8.824;2023-11-21T00:47:57;15.20;99.90
66608;DHT22;53462;39.616;8.824;2023-11-21T00:50:23;15.00;99.90
66608;DHT22;53462;39.616;8.824;2023-11-21T00:52:49;14.90;99.90
66608;DHT22;53462;39.616;8.824;2023-11-21T00:55:17;14.90;99.90
66608;DHT22;53462;39.616;8.824;2023-11-21T00:57:43;14.80;99.90
66608;DHT22;53462;39.616;8.824;2023-11-21T01:00:10;14.80;99.90
66608;DHT22;53462;39.616;8.824;2023-11-21T01:02:46;14.80;99.90
66608;DHT22;53462;39.616;8.824;2023-11-21T01:05:14;14.60;99.90
66608;DHT22;53462;39.616;8.824;2023-11-21T01:07:39;14.60;99.90
66608;DHT22;53462;39.616;8.824;2023-11-21T01:10:06;14.50;99.90
66608;DHT22;53462;39.616;8.824;2023-11-21T01:12:37;14.30;99.90
66608;DHT22;53462;39.616;8.824;2023-11-21T01:15:05;14.10;99.90
66608;DHT22;53462;39.616;8.824;2023-11-21T01:17:33;14.00;99.90
66608;DHT22;53462;39.616;8.824;2023-11-21T01:20:00;13.90;99.90
66608;DHT22;53462;39.616;8.824;2023-11-21T01:22:26;13.80;99.90
66608;DHT22;53462;39.616;8.824;2023-11-21T01:24:53;13.80;99.90
66608;DHT22;53462;39.616;8.824;2023-11-21T01:27:19;13.70;99.90
66608;DHT22;53462;39.616;8.824;2023-11-21T01:29:45;13.60;99.90
66608;DHT22;53462;39.616;8.824;2023-11-21T01:32:11;13.50;99.90
66608;DHT22;53462;39.616;8.824;2023-11-21T01:34:37;13.40;99.90
66608;DHT22;53462;39.616;8.824;2023-11-21T01:37:03;13.40;99.90
66608;DHT22;53462;39.616;8.824;2023-11-21T01:39:31;13.40;99.90
66608;DHT22;53462;39.616;8.824;2023-11-21T01:41:57;13.30;99.90
66608;DHT22;53462;39.616;8.824;2023-11-21T01:44:26;13.30;99.90
66608;DHT22;53462;39.616;8.824;2023-11-21T01:46:52;13.40;99.90
66608;DHT22;53462;39.616;8.824;2023-11-21T01:49:19;13.40;99.90
66608;DHT22;53462;39.616;8.824;2023-11-21T01:51:48;13.30;99.90
66608;DHT22;53462;39.616;8.824;2023-11-21T01:54:16;13.30;99.90
66608;DHT22;53462;39.616;8.824;2023-11-21T01:56:46;13.20;99.90
66608;DHT22;53462;39.616;8.824;2023-11-21T01:59:18;13.10;99.90
66608;DHT22;53462;39.616;8.824;2023-11-21T02:01:45;13.10;99.90
66608;DHT22;53462;39.616;8.824;2023-11-21T02:04:13;13.10;99.90
66608;DHT22;53462;39.616;8.824;2023-11-21T02:06:39;13.20;99.90
66608;DHT22;53462;39.616;8.824;2023-11-21T02:09:05;13.30;99.90
66608;DHT22;53462;39.616;8.824;2023-11-21T02:11:31;13.30;99.90
66608;DHT22;53462;39.616;8.824;2023-11-21T02:14:01;13.20;99.90
66608;DHT22;53462;39.616;8.824;2023-11-21T02:16:27;13.20;99.90
66608;DHT22;53462;39.616;8.824;2023-11-21T02:18:56;13.30;99.90
66608;DHT22;53462;39.616;8.824;2023-11-21T02:21:23;13.20;99.90
66608;DHT22;53462;39.616;8.824;2023-11-21T02:23:50;13.20;99.90
66608;DHT22;53462;39.616;8.824;2023-11-21T02:26:16;13.10;99.90
66608;DHT22;53462;39.616;8.824;2023-11-21T02:28:42;13.20;99.90
66608;DHT22;53462;39.616;8.824;2023-11-21T02:31:08;13.10;99.90
66608;DHT22;53462;39.616;8.824;2023-11-21T02:33:34;13.10;99.90
66608;DHT22;53462;39.616;8.824;2023-11-21T02:36:01;13.00;99.90
66608;DHT22;53462;39.616;8.824;2023-11-21T02:38:27;13.00;99.90
66608;DHT22;53462;39.616;8.824;2023-11-21T02:40:53;13.00;99.90
66608;DHT22;53462;39.616;8.824;2023-11-21T02:43:19;12.90;99.90
66608;DHT22;53462;39.616;8.824;2023-11-21T02:45:45;12.90;99.90
66608;DHT22;53462;39.616;8.824;2023-11-21T02:48:12;12.90;99.90
66608;DHT22;53462;39.616;8.824;2023-11-21T02:50:38;12.90;99.90
66608;DHT22;53462;39.616;8.824;2023-11-21T02:53:04;12.90;99.90
66608;DHT22;53462;39.616;8.824;2023-11-21T02:55:33;12.90;99.90
66608;DHT22;53462;39.616;8.824;2023-11-21T02:58:01;13.00;99.90
66608;DHT22;53462;39.616;8.824;2023-11-21T03:00:27;13.00;99.90
66608;DHT22;53462;39.616;8.824;2023-11-21T03:02:55;13.20;99.90
66608;DHT22;53462;39.616;8.824;2023-11-21T03:05:21;13.20;99.90
66608;DHT22;53462;39.616;8.824;2023-11-21T03:07:47;13.30;99.90
66608;DHT22;53462;39.616;8.824;2023-11-21T03:10:13;13.30;99.90
66608;DHT22;53462;39.616;8.824;2023-11-21T03:12:39;13.30;99.90
66608;DHT22;53462;39.616;8.824;2023-11-21T03:15:06;13.30;99.90
66608;DHT22;53462;39.616;8.824;2023-11-21T03:17:32;13.40;99.90
66608;DHT22;53462;39.616;8.824;2023-11-21T03:20:03;13.40;99.90
66608;DHT22;53462;39.616;8.824;2023-11-21T03:22:29;13.30;99.90
66608;DHT22;53462;39.616;8.824;2023-11-21T03:24:55;13.30;99.90
66608;DHT22;53462;39.616;8.824;2023-11-21T03:27:21;13.30;99.90
66608;DHT22;53462;39.616;8.824;2023-11-21T03:29:48;13.30;99.90
66608;DHT22;53462;39.616;8.824;2023-11-21T03:32:15;13.30;99.90
66608;DHT22;53462;39.616;8.824;2023-11-21T03:34:58;13.30;99.90
66608;DHT22;53462;39.616;8.824;2023-11-21T03:37:24;13.40;99.90
66608;DHT22;53462;39.616;8.824;2023-11-21T03:39:51;13.50;99.90
66608;DHT22;53462;39.616;8.824;2023-11-21T03:42:17;13.50;99.90
66608;DHT22;53462;39.616;8.824;2023-11-21T03:44:43;13.50;99.90
66608;DHT22;53462;39.616;8.824;2023-11-21T03:47:09;13.60;99.90
66608;DHT22;53462;39.616;8.824;2023-11-21T03:49:34;13.60;99.90
66608;DHT22;53462;39.616;8.824;2023-11-21T03:52:00;13.60;99.90
66608;DHT22;53462;39.616;8.824;2023-11-21T03:54:26;13.70;99.90
66608;DHT22;53462;39.616;8.824;2023-11-21T03:56:52;13.80;99.90
66608;DHT22;53462;39.616;8.824;2023-11-21T03:59:18;13.80;99.90
66608;DHT22;53462;39.616;8.824;2023-11-21T04:01:44;13.80;99.90
66608;DHT22;53462;39.616;8.824;2023-11-21T04:04:09;13.80;99.90
66608;DHT22;53462;39.616;8.824;2023-11-21T04:06:36;13.80;99.90
66608;DHT22;53462;39.616;8.824;2023-11-21T04:09:03;13.90;99.90
66608;DHT22;53462;39.616;8.824;2023-11-21T04:11:30;13.90;99.90
66608;DHT22;53462;39.616;8.824;2023-11-21T04:13:56;13.80;99.90
66608;DHT22;53462;39.616;8.824;2023-11-21T04:16:22;13.90;99.90
66608;DHT22;53462;39.616;8.824;2023-11-21T04:18:47;13.90;99.90
66608;DHT22;53462;39.616;8.824;2023-11-21T04:21:13;13.90;99.90
66608;DHT22;53462;39.616;8.824;2023-11-21T04:23:39;13.90;99.90
66608;DHT22;53462;39.616;8.824;2023-11-21T04:26:06;13.90;99.90
66608;DHT22;53462;39.616;8.824;2023-11-21T04:28:32;13.90;99.90
66608;DHT22;53462;39.616;8.824;2023-11-21T04:30:58;13.80;99.90
66608;DHT22;53462;39.616;8.824;2023-11-21T04:33:24;13.70;99.90
66608;DHT22;53462;39.616;8.824;2023-11-21T04:35:51;13.80;99.90
66608;DHT22;53462;39.616;8.824;2023-11-21T04:38:17;13.80;99.90
66608;DHT22;53462;39.616;8.824;2023-11-21T04:40:44;13.90;99.90
66608;DHT22;53462;39.616;8.824;2023-11-21T04:43:10;13.90;99.90
66608;DHT22;53462;39.616;8.824;2023-11-21T04:45:36;13.90;99.90
66608;DHT22;53462;39.616;8.824;2023-11-21T04:48:02;13.90;99.90
66608;DHT22;53462;39.616;8.824;2023-11-21T04:50:28;13.70;99.90
66608;DHT22;53462;39.616;8.824;2023-11-21T04:52:53;13.70;99.90
66608;DHT22;53462;39.616;8.824;2023-11-21T04:55:19;13.80;99.90
66608;DHT22;53462;39.616;8.824;2023-11-21T04:57:45;13.70;99.90
66608;DHT22;53462;39.616;8.824;2023-11-21T05:00:13;13.60;99.90
66608;DHT22;53462;39.616;8.824;2023-11-21T05:02:40;13.60;99.90
66608;DHT22;53462;39.616;8.824;2023-11-21T05:05:07;13.50;99.90
66608;DHT22;53462;39.616;8.824;2023-11-21T05:07:34;13.40;99.90
66608;DHT22;53462;39.616;8.824;2023-11-21T05:10:01;13.30;99.90
66608;DHT22;53462;39.616;8.824;2023-11-21T05:12:31;13.30;99.90
66608;DHT22;53462;39.616;8.824;2023-11-21T05:15:04;13.20;99.90
66608;DHT22;53462;39.616;8.824;2023-11-21T05:17:40;13.20;99.90
66608;DHT22;53462;39.616;8.824;2023-11-21T05:20:15;13.20;99.90
66608;DHT22;53462;39.616;8.824;2023-11-21T05:22:47;13.20;99.90
66608;DHT22;53462;39.616;8.824;2023-11-21T05:25:16;13.20;99.90
66608;DHT22;53462;39.616;8.824;2023-11-21T05:27:48;13.20;99.90
66608;DHT22;53462;39.616;8.824;2023-11-21T05:30:14;13.10;99.90
66608;DHT22;53462;39.616;8.824;2023-11-21T05:32:40;13.00;99.90
66608;DHT22;53462;39.616;8.824;2023-11-21T05:35:10;13.00;99.90
66608;DHT22;53462;39.616;8.824;2023-11-21T05:37:44;13.00;99.90
66608;DHT22;53462;39.616;8.824;2023-11-21T05:40:10;13.10;99.90
66608;DHT22;53462;39.616;8.824;2023-11-21T05:42:36;13.10;99.90
66608;DHT22;53462;39.616;8.824;2023-11-21T05:45:04;13.10;99.90
66608;DHT22;53462;39.616;8.824;2023-11-21T05:47:37;13.00;99.90
66608;DHT22;53462;39.616;8.824;2023-11-21T05:50:05;12.90;99.90
66608;DHT22;53462;39.616;8.824;2023-11-21T05:52:31;13.00;99.90
66608;DHT22;53462;39.616;8.824;2023-11-21T05:54:58;13.10;99.90
66608;DHT22;53462;39.616;8.824;2023-11-21T05:57:24;13.10;99.90
66608;DHT22;53462;39.616;8.824;2023-11-21T05:59:50;13.10;99.90
66608;DHT22;53462;39.616;8.824;2023-11-21T06:02:16;13.00;99.90
66608;DHT22;53462;39.616;8.824;2023-11-21T06:04:42;12.90;99.90
66608;DHT22;53462;39.616;8.824;2023-11-21T06:07:08;13.00;99.90
66608;DHT22;53462;39.616;8.824;2023-11-21T06:09:34;13.00;99.90
66608;DHT22;53462;39.616;8.824;2023-11-21T06:12:00;13.10;99.90
66608;DHT22;53462;39.616;8.824;2023-11-21T06:14:26;13.10;99.90
66608;DHT22;53462;39.616;8.824;2023-11-21T06:16:52;13.20;99.90
66608;DHT22;53462;39.616;8.824;2023-11-21T06:19:18;13.30;99.90
66608;DHT22;53462;39.616;8.824;2023-11-21T06:21:47;13.40;99.90
66608;DHT22;53462;39.616;8.824;2023-11-21T06:24:13;13.30;99.90
66608;DHT22;53462;39.616;8.824;2023-11-21T06:26:41;13.20;99.90
66608;DHT22;53462;39.616;8.824;2023-11-21T06:29:06;13.20;99.90
66608;DHT22;53462;39.616;8.824;2023-11-21T06:31:32;13.20;99.90
66608;DHT22;53462;39.616;8.824;2023-11-21T06:33:58;13.20;99.90
66608;DHT22;53462;39.616;8.824;2023-11-21T06:36:25;13.20;99.90
66608;DHT22;53462;39.616;8.824;2023-11-21T06:38:52;13.20;99.90
66608;DHT22;53462;39.616;8.824;2023-11-21T06:41:18;13.10;99.90
66608;DHT22;53462;39.616;8.824;2023-11-21T06:43:44;13.20;99.90
66608;DHT22;53462;39.616;8.824;2023-11-21T06:46:12;13.20;99.90
66608;DHT22;53462;39.616;8.824;2023-11-21T06:48:44;13.20;99.90
66608;DHT22;53462;39.616;8.824;2023-11-21T06:51:10;13.20;99.90
66608;DHT22;53462;39.616;8.824;2023-11-21T06:53:37;13.30;99.90
66608;DHT22;53462;39.616;8.824;2023-11-21T06:56:03;13.30;99.90
66608;DHT22;53462;39.616;8.824;2023-11-21T06:58:29;13.20;99.90
66608;DHT22;53462;39.616;8.824;2023-11-21T07:00:55;13.30;99.90
66608;DHT22;53462;39.616;8.824;2023-11-21T07:03:21;13.40;99.90
66608;DHT22;53462;39.616;8.824;2023-11-21T07:05:46;13.50;99.90
66608;DHT22;53462;39.616;8.824;2023-11-21T07:08:12;13.70;99.90
66608;DHT22;53462;39.616;8.824;2023-11-21T07:10:38;14.20;99.90
66608;DHT22;53462;39.616;8.824;2023-11-21T07:13:04;14.40;99.90
66608;DHT22;53462;39.616;8.824;2023-11-21T07:15:30;14.70;99.90
66608;DHT22;53462;39.616;8.824;2023-11-21T07:17:56;14.80;99.90
66608;DHT22;53462;39.616;8.824;2023-11-21T07:20:22;15.00;99.90
66608;DHT22;53462;39.616;8.824;2023-11-21T07:22:49;15.30;99.90
66608;DHT22;53462;39.616;8.824;2023-11-21T07:25:14;15.80;99.90
66608;DHT22;53462;39.616;8.824;2023-11-21T07:27:40;16.40;99.90
66608;DHT22;53462;39.616;8.824;2023-11-21T07:30:07;16.90;99.90
66608;DHT22;53462;39.616;8.824;2023-11-21T07:32:35;17.20;99.90
66608;DHT22;53462;39.616;8.824;2023-11-21T07:35:01;17.70;99.90
66608;DHT22;53462;39.616;8.824;2023-11-21T07:37:27;18.50;99.90
66608;DHT22;53462;39.616;8.824;2023-11-21T07:39:55;18.40;99.90
66608;DHT22;53462;39.616;8.824;2023-11-21T07:42:24;18.30;99.90
66608;DHT22;53462;39.616;8.824;2023-11-21T07:44:52;18.00;99.90
66608;DHT22;53462;39.616;8.824;2023-11-21T07:47:18;17.90;99.90
66608;DHT22;53462;39.616;8.824;2023-11-21T07:49:44;17.50;99.90
66608;DHT22;53462;39.616;8.824;2023-11-21T07:52:10;17.20;99.90
66608;DHT22;53462;39.616;8.824;2023-11-21T07:54:36;17.10;99.90
66608;DHT22;53462;39.616;8.824;2023-11-21T07:57:03;17.20;99.90
66608;DHT22;53462;39.616;8.824;2023-11-21T07:59:30;17.10;99.90
66608;DHT22;53462;39.616;8.824;2023-11-21T08:01:56;16.90;99.90
66608;DHT22;53462;39.616;8.824;2023-11-21T08:04:22;16.70;99.90
66608;DHT22;53462;39.616;8.824;2023-11-21T08:06:48;16.50;99.90
66608;DHT22;53462;39.616;8.824;2023-11-21T08:09:14;16.40;99.90
66608;DHT22;53462;39.616;8.824;2023-11-21T08:11:42;16.40;99.90
66608;DHT22;53462;39.616;8.824;2023-11-21T08:14:08;16.30;99.90
66608;DHT22;53462;39.616;8.824;2023-11-21T08:16:34;16.20;99.90
66608;DHT22;53462;39.616;8.824;2023-11-21T08:19:00;16.20;99.90
66608;DHT22;53462;39.616;8.824;2023-11-21T08:21:26;16.20;99.90
66608;DHT22;53462;39.616;8.824;2023-11-21T08:23:54;16.30;99.90
66608;DHT22;53462;39.616;8.824;2023-11-21T08:26:22;16.50;99.90
66608;DHT22;53462;39.616;8.824;2023-11-21T08:28:48;16.50;99.90
66608;DHT22;53462;39.616;8.824;2023-11-21T08:31:14;16.60;99.90
66608;DHT22;53462;39.616;8.824;2023-11-21T08:33:40;16.70;99.90
66608;DHT22;53462;39.616;8.824;2023-11-21T08:36:09;17.30;99.90
66608;DHT22;53462;39.616;8.824;2023-11-21T08:38:36;18.20;99.90
66608;DHT22;53462;39.616;8.824;2023-11-21T08:41:07;18.70;99.90
66608;DHT22;53462;39.616;8.824;2023-11-21T08:43:36;18.80;99.90
66608;DHT22;53462;39.616;8.824;2023-11-21T08:46:06;18.80;99.90
66608;DHT22;53462;39.616;8.824;2023-11-21T08:48:32;20.00;99.70
66608;DHT22;53462;39.616;8.824;2023-11-21T08:50:57;21.60;93.30
66608;DHT22;53462;39.616;8.824;2023-11-21T08:53:23;22.50;86.70
66608;DHT22;53462;39.616;8.824;2023-11-21T08:55:51;20.70;86.70
66608;DHT22;53462;39.616;8.824;2023-11-21T08:58:19;19.50;92.60
66608;DHT22;53462;39.616;8.824;2023-11-21T09:00:45;18.80;95.60
66608;DHT22;53462;39.616;8.824;2023-11-21T09:03:12;18.50;98.40
66608;DHT22;53462;39.616;8.824;2023-11-21T09:05:39;18.30;99.90
66608;DHT22;53462;39.616;8.824;2023-11-21T09:08:05;19.20;99.90
66608;DHT22;53462;39.616;8.824;2023-11-21T09:10:33;20.00;94.90
66608;DHT22;53462;39.616;8.824;2023-11-21T09:13:03;20.30;91.20
66608;DHT22;53462;39.616;8.824;2023-11-21T09:15:29;19.40;91.90
66608;DHT22;53462;39.616;8.824;2023-11-21T09:17:55;19.00;95.50
66608;DHT22;53462;39.616;8.824;2023-11-21T09:20:22;19.40;98.00
66608;DHT22;53462;39.616;8.824;2023-11-21T09:22:49;20.90;91.30
66608;DHT22;53462;39.616;8.824;2023-11-21T09:25:15;23.60;79.50
66608;DHT22;53462;39.616;8.824;2023-11-21T09:27:41;25.70;69.20
66608;DHT22;53462;39.616;8.824;2023-11-21T09:30:07;25.00;67.50
66608;DHT22;53462;39.616;8.824;2023-11-21T09:32:37;24.10;71.30
66608;DHT22;53462;39.616;8.824;2023-11-21T09:35:04;27.40;62.10
66608;DHT22;53462;39.616;8.824;2023-11-21T09:37:31;27.10;61.40
66608;DHT22;53462;39.616;8.824;2023-11-21T09:39:57;29.00;56.00
66608;DHT22;53462;39.616;8.824;2023-11-21T09:42:27;30.10;51.90
66608;DHT22;53462;39.616;8.824;2023-11-21T09:45:18;31.10;48.50
66608;DHT22;53462;39.616;8.824;2023-11-21T09:47:47;32.10;46.70
66608;DHT22;53462;39.616;8.824;2023-11-21T09:50:16;31.80;44.20
66608;DHT22;53462;39.616;8.824;2023-11-21T09:55:28;31.80;43.10
66608;DHT22;53462;39.616;8.824;2023-11-21T09:58:02;32.50;41.80
66608;DHT22;53462;39.616;8.824;2023-11-21T10:00:30;32.60;42.10
66608;DHT22;53462;39.616;8.824;2023-11-21T10:02:58;33.10;39.40
66608;DHT22;53462;39.616;8.824;2023-11-21T10:05:25;33.30;38.30
66608;DHT22;53462;39.616;8.824;2023-11-21T10:07:51;33.80;37.90
66608;DHT22;53462;39.616;8.824;2023-11-21T10:10:19;31.50;40.50
66608;DHT22;53462;39.616;8.824;2023-11-21T10:13:06;27.20;48.00
66608;DHT22;53462;39.616;8.824;2023-11-21T10:15:35;24.60;56.00
66608;DHT22;53462;39.616;8.824;2023-11-21T10:18:03;23.60;57.60
66608;DHT22;53462;39.616;8.824;2023-11-21T10:20:30;22.70;59.70
66608;DHT22;53462;39.616;8.824;2023-11-21T10:22:56;22.20;62.80
66608;DHT22;53462;39.616;8.824;2023-11-21T10:25:24;22.00;65.20
66608;DHT22;53462;39.616;8.824;2023-11-21T10:27:58;22.30;66.10
66608;DHT22;53462;39.616;8.824;2023-11-21T10:30:35;22.40;64.90
66608;DHT22;53462;39.616;8.824;2023-11-21T10:33:03;21.50;68.10
66608;DHT22;53462;39.616;8.824;2023-11-21T10:35:45;21.10;70.00
66608;DHT22;53462;39.616;8.824;2023-11-21T10:38:23;27.30;53.00
66608;DHT22;53462;39.616;8.824;2023-11-21T10:40:51;30.70;41.70
66608;DHT22;53462;39.616;8.824;2023-11-21T10:43:17;30.90;38.90
66608;DHT22;53462;39.616;8.824;2023-11-21T10:45:44;29.90;39.00
66608;DHT22;53462;39.616;8.824;2023-11-21T10:48:14;25.20;49.20
66608;DHT22;53462;39.616;8.824;2023-11-21T10:50:45;24.60;52.10
66608;DHT22;53462;39.616;8.824;2023-11-21T10:53:11;23.50;55.30
66608;DHT22;53462;39.616;8.824;2023-11-21T10:55:38;22.50;59.70
66608;DHT22;53462;39.616;8.824;2023-11-21T10:58:05;21.10;66.40
66608;DHT22;53462;39.616;8.824;2023-11-21T11:00:33;19.60;78.30
66608;DHT22;53462;39.616;8.824;2023-11-21T11:03:00;19.00;84.10
66608;DHT22;53462;39.616;8.824;2023-11-21T11:05:27;18.50;88.10
66608;DHT22;53462;39.616;8.824;2023-11-21T11:08:05;18.10;90.70
66608;DHT22;53462;39.616;8.824;2023-11-21T11:10:32;18.10;93.50
66608;DHT22;53462;39.616;8.824;2023-11-21T11:12:58;18.00;95.10
66608;DHT22;53462;39.616;8.824;2023-11-21T11:15:25;18.10;95.50
66608;DHT22;53462;39.616;8.824;2023-11-21T11:17:53;18.10;94.20
66608;DHT22;53462;39.616;8.824;2023-11-21T11:20:30;18.20;91.50
66608;DHT22;53462;39.616;8.824;2023-11-21T11:36:46;19.50;74.50
66608;DHT22;53462;39.616;8.824;2023-11-21T11:39:30;19.70;72.50
66608;DHT22;53462;39.616;8.824;2023-11-21T11:41:57;19.30;74.30
66608;DHT22;53462;39.616;8.824;2023-11-21T11:44:47;19.50;74.40
66608;DHT22;53462;39.616;8.824;2023-11-21T11:55:04;20.20;64.40
66608;DHT22;53462;39.616;8.824;2023-11-21T11:57:31;20.40;62.60
66608;DHT22;53462;39.616;8.824;2023-11-21T12:02:44;20.40;61.70
66608;DHT22;53462;39.616;8.824;2023-11-21T12:05:11;20.70;60.60
66608;DHT22;53462;39.616;8.824;2023-11-21T12:07:49;20.60;60.60
66608;DHT22;53462;39.616;8.824;2023-11-21T12:10:17;20.90;59.40
66608;DHT22;53462;39.616;8.824;2023-11-21T12:12:45;20.80;58.70
66608;DHT22;53462;39.616;8.824;2023-11-21T12:15:12;20.70;59.70
66608;DHT22;53462;39.616;8.824;2023-11-21T12:17:39;20.70;60.40
66608;DHT22;53462;39.616;8.824;2023-11-21T12:20:06;20.90;60.70
66608;DHT22;53462;39.616;8.824;2023-11-21T12:22:45;20.70;59.20
66608;DHT22;53462;39.616;8.824;2023-11-21T12:27:49;20.50;60.50
66608;DHT22;53462;39.616;8.824;2023-11-21T12:30:20;20.60;58.40
66608;DHT22;53462;39.616;8.824;2023-11-21T12:32:51;20.60;57.20
66608;DHT22;53462;39.616;8.824;2023-11-21T12:35:18;20.50;58.30
66608;DHT22;53462;39.616;8.824;2023-11-21T12:37:48;20.40;60.10
66608;DHT22;53462;39.616;8.824;2023-11-21T12:40:15;20.40;61.10
66608;DHT22;53462;39.616;8.824;2023-11-21T12:42:42;20.20;62.60
66608;DHT22;53462;39.616;8.824;2023-11-21T12:45:09;19.70;62.70
66608;DHT22;53462;39.616;8.824;2023-11-21T12:47:41;19.40;64.10
66608;DHT22;53462;39.616;8.824;2023-11-21T12:50:07;19.30;65.40
66608;DHT22;53462;39.616;8.824;2023-11-21T12:52:45;19.30;65.70
66608;DHT22;53462;39.616;8.824;2023-11-21T12:55:21;19.10;65.60
66608;DHT22;53462;39.616;8.824;2023-11-21T12:57:49;19.30;66.60
66608;DHT22;53462;39.616;8.824;2023-11-21T13:00:27;19.40;66.00
66608;DHT22;53462;39.616;8.824;2023-11-21T13:02:55;19.30;65.90
66608;DHT22;53462;39.616;8.824;2023-11-21T13:05:47;18.90;65.10
66608;DHT22;53462;39.616;8.824;2023-11-21T13:08:20;18.80;66.30
66608;DHT22;53462;39.616;8.824;2023-11-21T13:10:53;18.50;67.70
66608;DHT22;53462;39.616;8.824;2023-11-21T13:13:23;18.30;69.80
66608;DHT22;53462;39.616;8.824;2023-11-21T13:15:55;18.10;71.60
66608;DHT22;53462;39.616;8.824;2023-11-21T13:18:23;18.30;70.80
66608;DHT22;53462;39.616;8.824;2023-11-21T13:20:49;18.60;68.70
66608;DHT22;53462;39.616;8.824;2023-11-21T13:23:16;18.70;68.00
66608;DHT22;53462;39.616;8.824;2023-11-21T13:25:43;18.40;68.60
66608;DHT22;53462;39.616;8.824;2023-11-21T13:28:11;18.10;69.80
66608;DHT22;53462;39.616;8.824;2023-11-21T13:30:38;18.00;71.20
66608;DHT22;53462;39.616;8.824;2023-11-21T13:33:08;17.80;71.70
66608;DHT22;53462;39.616;8.824;2023-11-21T13:35:36;17.60;74.60
66608;DHT22;53462;39.616;8.824;2023-11-21T13:38:14;17.60;74.90
66608;DHT22;53462;39.616;8.824;2023-11-21T13:40:53;17.50;76.30
66608;DHT22;53462;39.616;8.824;2023-11-21T13:43:22;17.40;76.20
66608;DHT22;53462;39.616;8.824;2023-11-21T13:45:52;17.50;75.10
66608;DHT22;53462;39.616;8.824;2023-11-21T13:48:27;17.70;74.30
66608;DHT22;53462;39.616;8.824;2023-11-21T13:51:14;17.90;74.20
66608;DHT22;53462;39.616;8.824;2023-11-21T13:53:44;18.30;70.70
66608;DHT22;53462;39.616;8.824;2023-11-21T13:56:13;18.60;70.40
66608;DHT22;53462;39.616;8.824;2023-11-21T13:58:46;18.20;69.30
66608;DHT22;53462;39.616;8.824;2023-11-21T14:01:19;17.80;69.70
66608;DHT22;53462;39.616;8.824;2023-11-21T14:04:11;17.60;70.60
66608;DHT22;53462;39.616;8.824;2023-11-21T14:06:49;17.40;68.80
66608;DHT22;53462;39.616;8.824;2023-11-21T14:09:21;16.90;70.70
66608;DHT22;53462;39.616;8.824;2023-11-21T14:11:52;17.00;70.50
66608;DHT22;53462;39.616;8.824;2023-11-21T14:14:26;17.00;70.90
66608;DHT22;53462;39.616;8.824;2023-11-21T14:16:53;16.90;71.90
66608;DHT22;53462;39.616;8.824;2023-11-21T14:19:24;16.90;72.90
66608;DHT22;53462;39.616;8.824;2023-11-21T14:21:56;16.80;72.90
66608;DHT22;53462;39.616;8.824;2023-11-21T14:24:23;16.80;73.20
66608;DHT22;53462;39.616;8.824;2023-11-21T14:26:50;16.70;73.00
66608;DHT22;53462;39.616;8.824;2023-11-21T14:29:18;16.70;73.80
66608;DHT22;53462;39.616;8.824;2023-11-21T14:31:49;16.70;73.60
66608;DHT22;53462;39.616;8.824;2023-11-21T14:34:17;16.60;76.30
66608;DHT22;53462;39.616;8.824;2023-11-21T14:36:43;16.40;79.60
66608;DHT22;53462;39.616;8.824;2023-11-21T14:39:10;16.30;80.80
66608;DHT22;53462;39.616;8.824;2023-11-21T14:41:49;16.30;83.00
66608;DHT22;53462;39.616;8.824;2023-11-21T14:44:15;16.00;84.90
66608;DHT22;53462;39.616;8.824;2023-11-21T14:46:42;15.90;86.80
66608;DHT22;53462;39.616;8.824;2023-11-21T14:49:13;15.80;87.70
66608;DHT22;53462;39.616;8.824;2023-11-21T14:51:50;15.90;89.00
66608;DHT22;53462;39.616;8.824;2023-11-21T14:54:39;15.70;89.30
66608;DHT22;53462;39.616;8.824;2023-11-21T14:57:10;15.70;90.40
66608;DHT22;53462;39.616;8.824;2023-11-21T14:59:46;15.70;90.00
66608;DHT22;53462;39.616;8.824;2023-11-21T15:02:18;15.60;90.60
66608;DHT22;53462;39.616;8.824;2023-11-21T15:04:49;15.60;91.20
66608;DHT22;53462;39.616;8.824;2023-11-21T15:07:18;15.50;91.20
66608;DHT22;53462;39.616;8.824;2023-11-21T15:09:44;15.50;91.80
66608;DHT22;53462;39.616;8.824;2023-11-21T15:12:11;15.40;92.30
66608;DHT22;53462;39.616;8.824;2023-11-21T15:14:44;15.40;93.40
66608;DHT22;53462;39.616;8.824;2023-11-21T15:17:17;15.40;94.00
66608;DHT22;53462;39.616;8.824;2023-11-21T15:19:55;15.40;94.20
66608;DHT22;53462;39.616;8.824;2023-11-21T15:22:22;15.40;94.70
66608;DHT22;53462;39.616;8.824;2023-11-21T15:24:48;15.40;94.80
66608;DHT22;53462;39.616;8.824;2023-11-21T15:27:15;15.30;94.30
66608;DHT22;53462;39.616;8.824;2023-11-21T15:29:42;15.40;94.60
66608;DHT22;53462;39.616;8.824;2023-11-21T15:32:09;15.40;94.70
66608;DHT22;53462;39.616;8.824;2023-11-21T15:34:36;15.40;94.70
66608;DHT22;53462;39.616;8.824;2023-11-21T15:37:03;15.40;94.20
66608;DHT22;53462;39.616;8.824;2023-11-21T15:39:30;15.40;94.30
66608;DHT22;53462;39.616;8.824;2023-11-21T15:41:57;15.30;94.10
66608;DHT22;53462;39.616;8.824;2023-11-21T15:44:24;15.20;94.20
66608;DHT22;53462;39.616;8.824;2023-11-21T15:46:54;15.20;94.20
66608;DHT22;53462;39.616;8.824;2023-11-21T15:49:19;15.20;94.30
66608;DHT22;53462;39.616;8.824;2023-11-21T15:51:48;15.20;93.70
66608;DHT22;53462;39.616;8.824;2023-11-21T15:54:24;15.20;93.90
66608;DHT22;53462;39.616;8.824;2023-11-21T15:56:51;15.20;93.70
66608;DHT22;53462;39.616;8.824;2023-11-21T15:59:18;15.10;93.70
66608;DHT22;53462;39.616;8.824;2023-11-21T16:01:44;15.20;93.70
66608;DHT22;53462;39.616;8.824;2023-11-21T16:04:13;15.10;93.90
66608;DHT22;53462;39.616;8.824;2023-11-21T16:06:46;15.20;96.50